sensor_id;sensor_type;location;lat;lon;timestamp;P1;P2;P0
36453;PMS5003;22478;51.740;-1.314;2023-02-28T00:01:20;17;17;
36453;PMS5003;22478;51.740;-1.314;2023-02-28T00:03:48;15;12;
36453;PMS5003;22478;51.740;-1.314;2023-02-28T00:06:16;15;14;
36453;PMS5003;22478;51.740;-1.314;2023-02-28T00:08:43;14;14;
36453;PMS5003;22478;51.740;-1.314;2023-02-28T00:11:12;14;13;
36453;PMS5003;22478;51.740;-1.314;2023-02-28T00:13:41;22;19;
36453;PMS5003;22478;51.740;-1.314;2023-02-28T00:16:12;18;14;
36453;PMS5003;22478;51.740;-1.314;2023-02-28T00:18:41;15;13;
36453;PMS5003;22478;51.740;-1.314;2023-02-28T00:21:08;12;12;
36453;PMS5003;22478;51.740;-1.314;2023-02-28T00:23:35;15;15;
36453;PMS5003;22478;51.740;-1.314;2023-02-28T00:26:03;15;13;
36453;PMS5003;22478;51.740;-1.314;2023-02-28T00:28:31;15;13;
36453;PMS5003;22478;51.740;-1.314;2023-02-28T00:30:59;8;8;
36453;PMS5003;22478;51.740;-1.314;2023-02-28T00:33:27;15;11;
36453;PMS5003;22478;51.740;-1.314;2023-02-28T00:36:03;14;12;
36453;PMS5003;22478;51.740;-1.314;2023-02-28T00:38:31;13;11;
36453;PMS5003;22478;51.740;-1.314;2023-02-28T00:40:58;19;17;
36453;PMS5003;22478;51.740;-1.314;2023-02-28T00:43:26;16;13;
36453;PMS5003;22478;51.740;-1.314;2023-02-28T00:45:53;13;12;
36453;PMS5003;22478;51.740;-1.314;2023-02-28T00:48:20;9;9;
36453;PMS5003;22478;51.740;-1.314;2023-02-28T00:50:48;14;10;
36453;PMS5003;22478;51.740;-1.314;2023-02-28T00:53:16;11;11;
36453;PMS5003;22478;51.740;-1.314;2023-02-28T00:55:43;14;11;
36453;PMS5003;22478;51.740;-1.314;2023-02-28T00:58:10;11;10;
36453;PMS5003;22478;51.740;-1.314;2023-02-28T01:00:37;13;12;
36453;PMS5003;22478;51.740;-1.314;2023-02-28T01:03:05;12;11;
36453;PMS5003;22478;51.740;-1.314;2023-02-28T01:05:32;18;16;
36453;PMS5003;22478;51.740;-1.314;2023-02-28T01:08:00;14;13;
36453;PMS5003;22478;51.740;-1.314;2023-02-28T01:10:27;14;13;
36453;PMS5003;22478;51.740;-1.314;2023-02-28T01:12:55;11;11;
36453;PMS5003;22478;51.740;-1.314;2023-02-28T01:15:22;12;9;
36453;PMS5003;22478;51.740;-1.314;2023-02-28T01:17:50;13;10;
36453;PMS5003;22478;51.740;-1.314;2023-02-28T01:20:17;10;9;
36453;PMS5003;22478;51.740;-1.314;2023-02-28T01:22:45;14;11;
36453;PMS5003;22478;51.740;-1.314;2023-02-28T01:25:12;12;11;
36453;PMS5003;22478;51.740;-1.314;2023-02-28T01:27:40;8;8;
36453;PMS5003;22478;51.740;-1.314;2023-02-28T01:30:08;14;13;
36453;PMS5003;22478;51.740;-1.314;2023-02-28T01:32:36;13;13;
36453;PMS5003;22478;51.740;-1.314;2023-02-28T01:35:03;13;13;
36453;PMS5003;22478;51.740;-1.314;2023-02-28T01:37:31;19;19;
36453;PMS5003;22478;51.740;-1.314;2023-02-28T01:39:58;15;12;
36453;PMS5003;22478;51.740;-1.314;2023-02-28T01:42:25;14;11;
36453;PMS5003;22478;51.740;-1.314;2023-02-28T01:44:55;14;13;
36453;PMS5003;22478;51.740;-1.314;2023-02-28T01:47:29;15;12;
36453;PMS5003;22478;51.740;-1.314;2023-02-28T01:49:58;11;11;
36453;PMS5003;22478;51.740;-1.314;2023-02-28T01:52:29;13;11;
36453;PMS5003;22478;51.740;-1.314;2023-02-28T01:54:58;15;10;
36453;PMS5003;22478;51.740;-1.314;2023-02-28T01:57:28;16;12;
36453;PMS5003;22478;51.740;-1.314;2023-02-28T01:59:59;12;10;
36453;PMS5003;22478;51.740;-1.314;2023-02-28T02:02:31;13;11;
36453;PMS5003;22478;51.740;-1.314;2023-02-28T02:04:59;12;10;
36453;PMS5003;22478;51.740;-1.314;2023-02-28T02:07:31;17;14;
36453;PMS5003;22478;51.740;-1.314;2023-02-28T02:10:04;13;10;
36453;PMS5003;22478;51.740;-1.314;2023-02-28T02:12:43;13;13;
36453;PMS5003;22478;51.740;-1.314;2023-02-28T02:15:26;11;10;
36453;PMS5003;22478;51.740;-1.314;2023-02-28T02:18:00;9;7;
36453;PMS5003;22478;51.740;-1.314;2023-02-28T02:20:39;10;9;
36453;PMS5003;22478;51.740;-1.314;2023-02-28T02:23:33;12;10;
36453;PMS5003;22478;51.740;-1.314;2023-02-28T02:26:26;8;7;
36453;PMS5003;22478;51.740;-1.314;2023-02-28T02:29:19;10;10;
36453;PMS5003;22478;51.740;-1.314;2023-02-28T02:32:26;16;16;
36453;PMS5003;22478;51.740;-1.314;2023-02-28T02:35:13;13;11;
36453;PMS5003;22478;51.740;-1.314;2023-02-28T02:37:47;15;13;
36453;PMS5003;22478;51.740;-1.314;2023-02-28T02:40:19;13;12;
36453;PMS5003;22478;51.740;-1.314;2023-02-28T02:42:51;38;38;
36453;PMS5003;22478;51.740;-1.314;2023-02-28T02:45:22;16;16;
36453;PMS5003;22478;51.740;-1.314;2023-02-28T02:47:52;6;6;
36453;PMS5003;22478;51.740;-1.314;2023-02-28T02:50:23;6;5;
36453;PMS5003;22478;51.740;-1.314;2023-02-28T02:52:56;10;7;
36453;PMS5003;22478;51.740;-1.314;2023-02-28T02:55:26;6;5;
36453;PMS5003;22478;51.740;-1.314;2023-02-28T02:57:56;7;7;
36453;PMS5003;22478;51.740;-1.314;2023-02-28T03:00:28;11;7;
36453;PMS5003;22478;51.740;-1.314;2023-02-28T03:02:59;7;7;
36453;PMS5003;22478;51.740;-1.314;2023-02-28T03:05:28;5;5;
36453;PMS5003;22478;51.740;-1.314;2023-02-28T03:08:02;10;6;
36453;PMS5003;22478;51.740;-1.314;2023-02-28T03:10:32;5;5;
36453;PMS5003;22478;51.740;-1.314;2023-02-28T03:13:06;9;6;
36453;PMS5003;22478;51.740;-1.314;2023-02-28T03:15:21;9;6;
36453;PMS5003;22478;51.740;-1.314;2023-02-28T03:17:58;4;4;
36453;PMS5003;22478;51.740;-1.314;2023-02-28T03:20:34;7;6;
36453;PMS5003;22478;51.740;-1.314;2023-02-28T03:23:09;13;11;
36453;PMS5003;22478;51.740;-1.314;2023-02-28T03:25:46;9;9;
36453;PMS5003;22478;51.740;-1.314;2023-02-28T03:28:28;10;8;
36453;PMS5003;22478;51.740;-1.314;2023-02-28T03:31:07;6;4;
36453;PMS5003;22478;51.740;-1.314;2023-02-28T03:33:42;7;7;
36453;PMS5003;22478;51.740;-1.314;2023-02-28T03:36:14;10;8;
36453;PMS5003;22478;51.740;-1.314;2023-02-28T03:38:47;21;17;
36453;PMS5003;22478;51.740;-1.314;2023-02-28T03:41:19;13;11;
36453;PMS5003;22478;51.740;-1.314;2023-02-28T03:43:51;21;18;
36453;PMS5003;22478;51.740;-1.314;2023-02-28T03:46:22;27;26;
36453;PMS5003;22478;51.740;-1.314;2023-02-28T03:48:55;23;22;
36453;PMS5003;22478;51.740;-1.314;2023-02-28T03:51:26;15;13;
36453;PMS5003;22478;51.740;-1.314;2023-02-28T03:53:56;16;14;
36453;PMS5003;22478;51.740;-1.314;2023-02-28T03:56:31;14;12;
36453;PMS5003;22478;51.740;-1.314;2023-02-28T03:59:04;16;13;
36453;PMS5003;22478;51.740;-1.314;2023-02-28T04:01:40;11;11;
36453;PMS5003;22478;51.740;-1.314;2023-02-28T04:04:10;20;20;
36453;PMS5003;22478;51.740;-1.314;2023-02-28T04:06:39;18;14;
36453;PMS5003;22478;51.740;-1.314;2023-02-28T04:09:08;16;13;
36453;PMS5003;22478;51.740;-1.314;2023-02-28T04:11:37;27;24;
36453;PMS5003;22478;51.740;-1.314;2023-02-28T04:14:07;16;16;
36453;PMS5003;22478;51.740;-1.314;2023-02-28T04:16:36;20;14;
36453;PMS5003;22478;51.740;-1.314;2023-02-28T04:19:06;16;16;
36453;PMS5003;22478;51.740;-1.314;2023-02-28T04:21:35;22;21;
36453;PMS5003;22478;51.740;-1.314;2023-02-28T04:24:05;14;14;
36453;PMS5003;22478;51.740;-1.314;2023-02-28T04:26:33;22;18;
36453;PMS5003;22478;51.740;-1.314;2023-02-28T04:29:02;26;20;
36453;PMS5003;22478;51.740;-1.314;2023-02-28T04:31:31;15;15;
36453;PMS5003;22478;51.740;-1.314;2023-02-28T04:33:58;20;18;
36453;PMS5003;22478;51.740;-1.314;2023-02-28T04:36:26;23;20;
36453;PMS5003;22478;51.740;-1.314;2023-02-28T04:38:53;24;21;
36453;PMS5003;22478;51.740;-1.314;2023-02-28T04:41:21;24;23;
36453;PMS5003;22478;51.740;-1.314;2023-02-28T04:43:49;24;20;
36453;PMS5003;22478;51.740;-1.314;2023-02-28T04:46:17;25;22;
36453;PMS5003;22478;51.740;-1.314;2023-02-28T04:48:45;26;20;
36453;PMS5003;22478;51.740;-1.314;2023-02-28T04:51:13;22;19;
36453;PMS5003;22478;51.740;-1.314;2023-02-28T04:53:42;28;22;
36453;PMS5003;22478;51.740;-1.314;2023-02-28T04:56:11;34;26;
36453;PMS5003;22478;51.740;-1.314;2023-02-28T04:58:40;27;23;
36453;PMS5003;22478;51.740;-1.314;2023-02-28T05:01:16;32;31;
36453;PMS5003;22478;51.740;-1.314;2023-02-28T05:03:47;27;21;
36453;PMS5003;22478;51.740;-1.314;2023-02-28T05:06:15;24;21;
36453;PMS5003;22478;51.740;-1.314;2023-02-28T05:08:42;25;19;
36453;PMS5003;22478;51.740;-1.314;2023-02-28T05:11:13;20;17;
36453;PMS5003;22478;51.740;-1.314;2023-02-28T05:13:43;23;20;
36453;PMS5003;22478;51.740;-1.314;2023-02-28T05:16:10;24;17;
36453;PMS5003;22478;51.740;-1.314;2023-02-28T05:18:37;21;18;
36453;PMS5003;22478;51.740;-1.314;2023-02-28T05:21:05;21;20;
36453;PMS5003;22478;51.740;-1.314;2023-02-28T05:23:44;30;30;
36453;PMS5003;22478;51.740;-1.314;2023-02-28T05:26:11;23;23;
36453;PMS5003;22478;51.740;-1.314;2023-02-28T05:28:38;25;22;
36453;PMS5003;22478;51.740;-1.314;2023-02-28T05:31:05;22;19;
36453;PMS5003;22478;51.740;-1.314;2023-02-28T05:33:34;17;17;
36453;PMS5003;22478;51.740;-1.314;2023-02-28T05:36:02;17;16;
36453;PMS5003;22478;51.740;-1.314;2023-02-28T05:38:29;25;19;
36453;PMS5003;22478;51.740;-1.314;2023-02-28T05:40:57;17;17;
36453;PMS5003;22478;51.740;-1.314;2023-02-28T05:43:24;23;20;
36453;PMS5003;22478;51.740;-1.314;2023-02-28T05:45:51;28;26;
36453;PMS5003;22478;51.740;-1.314;2023-02-28T05:48:18;22;17;
36453;PMS5003;22478;51.740;-1.314;2023-02-28T05:50:45;21;18;
36453;PMS5003;22478;51.740;-1.314;2023-02-28T05:53:13;17;15;
36453;PMS5003;22478;51.740;-1.314;2023-02-28T05:55:40;21;18;
36453;PMS5003;22478;51.740;-1.314;2023-02-28T05:58:07;19;16;
36453;PMS5003;22478;51.740;-1.314;2023-02-28T06:00:34;19;16;
36453;PMS5003;22478;51.740;-1.314;2023-02-28T06:03:02;17;16;
36453;PMS5003;22478;51.740;-1.314;2023-02-28T06:05:29;21;20;
36453;PMS5003;22478;51.740;-1.314;2023-02-28T06:07:56;21;14;
36453;PMS5003;22478;51.740;-1.314;2023-02-28T06:10:23;17;16;
36453;PMS5003;22478;51.740;-1.314;2023-02-28T06:12:50;21;18;
36453;PMS5003;22478;51.740;-1.314;2023-02-28T06:15:18;21;18;
36453;PMS5003;22478;51.740;-1.314;2023-02-28T06:17:45;24;21;
36453;PMS5003;22478;51.740;-1.314;2023-02-28T06:20:12;17;14;
36453;PMS5003;22478;51.740;-1.314;2023-02-28T06:22:40;20;17;
36453;PMS5003;22478;51.740;-1.314;2023-02-28T06:25:08;19;16;
36453;PMS5003;22478;51.740;-1.314;2023-02-28T06:27:37;18;15;
36453;PMS5003;22478;51.740;-1.314;2023-02-28T06:30:04;24;21;
36453;PMS5003;22478;51.740;-1.314;2023-02-28T06:32:33;22;20;
36453;PMS5003;22478;51.740;-1.314;2023-02-28T06:35:00;21;21;
36453;PMS5003;22478;51.740;-1.314;2023-02-28T06:37:27;18;17;
36453;PMS5003;22478;51.740;-1.314;2023-02-28T06:39:55;14;12;
36453;PMS5003;22478;51.740;-1.314;2023-02-28T06:42:22;18;16;
36453;PMS5003;22478;51.740;-1.314;2023-02-28T06:44:49;15;15;
36453;PMS5003;22478;51.740;-1.314;2023-02-28T06:47:17;16;14;
36453;PMS5003;22478;51.740;-1.314;2023-02-28T06:49:45;15;15;
36453;PMS5003;22478;51.740;-1.314;2023-02-28T06:52:12;11;11;
36453;PMS5003;22478;51.740;-1.314;2023-02-28T06:54:40;18;10;
36453;PMS5003;22478;51.740;-1.314;2023-02-28T06:57:08;15;14;
36453;PMS5003;22478;51.740;-1.314;2023-02-28T06:59:36;13;8;
36453;PMS5003;22478;51.740;-1.314;2023-02-28T07:02:03;13;7;
36453;PMS5003;22478;51.740;-1.314;2023-02-28T07:04:30;7;7;
36453;PMS5003;22478;51.740;-1.314;2023-02-28T07:06:57;13;11;
36453;PMS5003;22478;51.740;-1.314;2023-02-28T07:09:25;9;7;
36453;PMS5003;22478;51.740;-1.314;2023-02-28T07:11:52;10;8;
36453;PMS5003;22478;51.740;-1.314;2023-02-28T07:14:19;15;11;
36453;PMS5003;22478;51.740;-1.314;2023-02-28T07:16:46;9;8;
36453;PMS5003;22478;51.740;-1.314;2023-02-28T07:19:14;7;5;
36453;PMS5003;22478;51.740;-1.314;2023-02-28T07:21:41;7;6;
36453;PMS5003;22478;51.740;-1.314;2023-02-28T07:24:08;9;8;
36453;PMS5003;22478;51.740;-1.314;2023-02-28T07:26:35;6;6;
36453;PMS5003;22478;51.740;-1.314;2023-02-28T07:29:03;6;6;
36453;PMS5003;22478;51.740;-1.314;2023-02-28T07:31:30;7;6;
36453;PMS5003;22478;51.740;-1.314;2023-02-28T07:33:57;6;6;
36453;PMS5003;22478;51.740;-1.314;2023-02-28T07:36:25;6;4;
36453;PMS5003;22478;51.740;-1.314;2023-02-28T07:38:52;6;5;
36453;PMS5003;22478;51.740;-1.314;2023-02-28T07:41:20;4;4;
36453;PMS5003;22478;51.740;-1.314;2023-02-28T07:43:48;3;2;
36453;PMS5003;22478;51.740;-1.314;2023-02-28T07:46:17;5;4;
36453;PMS5003;22478;51.740;-1.314;2023-02-28T07:48:44;5;4;
36453;PMS5003;22478;51.740;-1.314;2023-02-28T07:51:13;6;5;
36453;PMS5003;22478;51.740;-1.314;2023-02-28T07:53:40;7;4;
36453;PMS5003;22478;51.740;-1.314;2023-02-28T07:56:07;12;12;
36453;PMS5003;22478;51.740;-1.314;2023-02-28T07:58:35;4;3;
36453;PMS5003;22478;51.740;-1.314;2023-02-28T08:01:06;3;3;
36453;PMS5003;22478;51.740;-1.314;2023-02-28T08:03:34;6;5;
36453;PMS5003;22478;51.740;-1.314;2023-02-28T08:06:03;5;3;
36453;PMS5003;22478;51.740;-1.314;2023-02-28T08:08:31;10;8;
36453;PMS5003;22478;51.740;-1.314;2023-02-28T08:10:58;7;7;
36453;PMS5003;22478;51.740;-1.314;2023-02-28T08:13:26;4;4;
36453;PMS5003;22478;51.740;-1.314;2023-02-28T08:15:55;6;6;
36453;PMS5003;22478;51.740;-1.314;2023-02-28T08:18:23;6;6;
36453;PMS5003;22478;51.740;-1.314;2023-02-28T08:20:51;5;5;
36453;PMS5003;22478;51.740;-1.314;2023-02-28T08:23:18;6;6;
36453;PMS5003;22478;51.740;-1.314;2023-02-28T08:25:52;9;7;
36453;PMS5003;22478;51.740;-1.314;2023-02-28T08:28:20;9;6;
36453;PMS5003;22478;51.740;-1.314;2023-02-28T08:30:47;6;6;
36453;PMS5003;22478;51.740;-1.314;2023-02-28T08:33:15;11;8;
36453;PMS5003;22478;51.740;-1.314;2023-02-28T08:35:42;10;6;
36453;PMS5003;22478;51.740;-1.314;2023-02-28T08:38:09;7;7;
36453;PMS5003;22478;51.740;-1.314;2023-02-28T08:40:36;7;5;
36453;PMS5003;22478;51.740;-1.314;2023-02-28T08:43:04;7;5;
36453;PMS5003;22478;51.740;-1.314;2023-02-28T08:45:31;5;5;
36453;PMS5003;22478;51.740;-1.314;2023-02-28T08:47:58;7;5;
36453;PMS5003;22478;51.740;-1.314;2023-02-28T08:50:25;5;5;
36453;PMS5003;22478;51.740;-1.314;2023-02-28T08:52:53;4;4;
36453;PMS5003;22478;51.740;-1.314;2023-02-28T08:55:20;7;5;
36453;PMS5003;22478;51.740;-1.314;2023-02-28T08:57:47;5;5;
36453;PMS5003;22478;51.740;-1.314;2023-02-28T09:00:15;7;7;
36453;PMS5003;22478;51.740;-1.314;2023-02-28T09:02:42;11;8;
36453;PMS5003;22478;51.740;-1.314;2023-02-28T09:05:09;9;6;
36453;PMS5003;22478;51.740;-1.314;2023-02-28T09:07:37;7;7;
36453;PMS5003;22478;51.740;-1.314;2023-02-28T09:10:04;10;8;
36453;PMS5003;22478;51.740;-1.314;2023-02-28T09:12:32;7;7;
36453;PMS5003;22478;51.740;-1.314;2023-02-28T09:15:02;8;7;
36453;PMS5003;22478;51.740;-1.314;2023-02-28T09:17:30;8;8;
36453;PMS5003;22478;51.740;-1.314;2023-02-28T09:19:57;7;6;
36453;PMS5003;22478;51.740;-1.314;2023-02-28T09:22:25;6;6;
36453;PMS5003;22478;51.740;-1.314;2023-02-28T09:24:52;4;4;
36453;PMS5003;22478;51.740;-1.314;2023-02-28T09:27:19;4;4;
36453;PMS5003;22478;51.740;-1.314;2023-02-28T09:29:46;3;3;
36453;PMS5003;22478;51.740;-1.314;2023-02-28T09:32:13;4;4;
36453;PMS5003;22478;51.740;-1.314;2023-02-28T09:34:40;7;6;
36453;PMS5003;22478;51.740;-1.314;2023-02-28T09:37:07;8;6;
36453;PMS5003;22478;51.740;-1.314;2023-02-28T09:39:34;7;7;
36453;PMS5003;22478;51.740;-1.314;2023-02-28T09:42:02;7;7;
36453;PMS5003;22478;51.740;-1.314;2023-02-28T09:44:32;6;6;
36453;PMS5003;22478;51.740;-1.314;2023-02-28T09:47:07;9;9;
36453;PMS5003;22478;51.740;-1.314;2023-02-28T09:49:40;6;6;
36453;PMS5003;22478;51.740;-1.314;2023-02-28T09:52:10;8;8;
36453;PMS5003;22478;51.740;-1.314;2023-02-28T09:54:41;8;8;
36453;PMS5003;22478;51.740;-1.314;2023-02-28T09:57:11;6;6;
36453;PMS5003;22478;51.740;-1.314;2023-02-28T09:59:50;14;13;
36453;PMS5003;22478;51.740;-1.314;2023-02-28T10:02:39;7;7;
36453;PMS5003;22478;51.740;-1.314;2023-02-28T10:05:14;10;10;
36453;PMS5003;22478;51.740;-1.314;2023-02-28T10:07:48;10;10;
36453;PMS5003;22478;51.740;-1.314;2023-02-28T10:10:26;14;11;
36453;PMS5003;22478;51.740;-1.314;2023-02-28T10:12:57;13;12;
36453;PMS5003;22478;51.740;-1.314;2023-02-28T10:15:29;11;11;
36453;PMS5003;22478;51.740;-1.314;2023-02-28T10:18:00;19;17;
36453;PMS5003;22478;51.740;-1.314;2023-02-28T10:20:32;14;11;
36453;PMS5003;22478;51.740;-1.314;2023-02-28T10:23:04;9;6;
36453;PMS5003;22478;51.740;-1.314;2023-02-28T10:25:38;9;9;
36453;PMS5003;22478;51.740;-1.314;2023-02-28T10:28:09;14;12;
36453;PMS5003;22478;51.740;-1.314;2023-02-28T10:30:38;7;7;
36453;PMS5003;22478;51.740;-1.314;2023-02-28T10:33:13;10;10;
36453;PMS5003;22478;51.740;-1.314;2023-02-28T10:35:46;16;13;
36453;PMS5003;22478;51.740;-1.314;2023-02-28T10:38:15;10;8;
36453;PMS5003;22478;51.740;-1.314;2023-02-28T10:40:44;8;7;
36453;PMS5003;22478;51.740;-1.314;2023-02-28T10:43:20;10;8;
36453;PMS5003;22478;51.740;-1.314;2023-02-28T10:45:58;12;12;
36453;PMS5003;22478;51.740;-1.314;2023-02-28T10:48:31;11;8;
36453;PMS5003;22478;51.740;-1.314;2023-02-28T10:51:01;10;9;
36453;PMS5003;22478;51.740;-1.314;2023-02-28T10:53:31;10;9;
36453;PMS5003;22478;51.740;-1.314;2023-02-28T10:56:01;12;11;
36453;PMS5003;22478;51.740;-1.314;2023-02-28T10:58:31;11;6;
36453;PMS5003;22478;51.740;-1.314;2023-02-28T11:01:12;8;8;
36453;PMS5003;22478;51.740;-1.314;2023-02-28T11:03:42;9;7;
36453;PMS5003;22478;51.740;-1.314;2023-02-28T11:06:13;10;8;
36453;PMS5003;22478;51.740;-1.314;2023-02-28T11:08:44;14;13;
36453;PMS5003;22478;51.740;-1.314;2023-02-28T11:11:14;12;12;
36453;PMS5003;22478;51.740;-1.314;2023-02-28T11:13:43;16;12;
36453;PMS5003;22478;51.740;-1.314;2023-02-28T11:16:13;10;10;
36453;PMS5003;22478;51.740;-1.314;2023-02-28T11:18:42;9;9;
36453;PMS5003;22478;51.740;-1.314;2023-02-28T11:21:18;10;10;
36453;PMS5003;22478;51.740;-1.314;2023-02-28T11:23:51;14;11;
36453;PMS5003;22478;51.740;-1.314;2023-02-28T11:26:37;12;12;
36453;PMS5003;22478;51.740;-1.314;2023-02-28T11:29:11;15;11;
36453;PMS5003;22478;51.740;-1.314;2023-02-28T11:31:46;15;10;
36453;PMS5003;22478;51.740;-1.314;2023-02-28T11:34:29;11;8;
36453;PMS5003;22478;51.740;-1.314;2023-02-28T11:36:58;13;11;
36453;PMS5003;22478;51.740;-1.314;2023-02-28T11:39:27;9;7;
36453;PMS5003;22478;51.740;-1.314;2023-02-28T11:41:58;7;5;
36453;PMS5003;22478;51.740;-1.314;2023-02-28T11:44:58;12;10;
36453;PMS5003;22478;51.740;-1.314;2023-02-28T11:47:42;8;8;
36453;PMS5003;22478;51.740;-1.314;2023-02-28T11:50:16;12;10;
36453;PMS5003;22478;51.740;-1.314;2023-02-28T11:52:54;8;7;
36453;PMS5003;22478;51.740;-1.314;2023-02-28T11:55:24;12;12;
36453;PMS5003;22478;51.740;-1.314;2023-02-28T11:57:58;9;9;
36453;PMS5003;22478;51.740;-1.314;2023-02-28T12:00:36;13;10;
36453;PMS5003;22478;51.740;-1.314;2023-02-28T12:03:15;8;8;
36453;PMS5003;22478;51.740;-1.314;2023-02-28T12:05:55;14;14;
36453;PMS5003;22478;51.740;-1.314;2023-02-28T12:08:38;11;10;
36453;PMS5003;22478;51.740;-1.314;2023-02-28T12:11:15;15;13;
36453;PMS5003;22478;51.740;-1.314;2023-02-28T12:13:58;14;14;
36453;PMS5003;22478;51.740;-1.314;2023-02-28T12:16:43;28;27;
36453;PMS5003;22478;51.740;-1.314;2023-02-28T12:19:22;14;14;
36453;PMS5003;22478;51.740;-1.314;2023-02-28T12:22:02;15;10;
36453;PMS5003;22478;51.740;-1.314;2023-02-28T12:24:43;21;16;
36453;PMS5003;22478;51.740;-1.314;2023-02-28T12:27:21;16;16;
36453;PMS5003;22478;51.740;-1.314;2023-02-28T12:29:54;20;20;
36453;PMS5003;22478;51.740;-1.314;2023-02-28T12:32:26;27;20;
36453;PMS5003;22478;51.740;-1.314;2023-02-28T12:35:01;18;15;
36453;PMS5003;22478;51.740;-1.314;2023-02-28T12:37:31;24;24;
36453;PMS5003;22478;51.740;-1.314;2023-02-28T12:40:04;20;17;
36453;PMS5003;22478;51.740;-1.314;2023-02-28T12:42:38;18;18;
36453;PMS5003;22478;51.740;-1.314;2023-02-28T12:45:10;28;28;
36453;PMS5003;22478;51.740;-1.314;2023-02-28T12:47:44;21;20;
36453;PMS5003;22478;51.740;-1.314;2023-02-28T12:50:14;13;13;
36453;PMS5003;22478;51.740;-1.314;2023-02-28T12:52:46;12;9;
36453;PMS5003;22478;51.740;-1.314;2023-02-28T12:55:28;10;7;
36453;PMS5003;22478;51.740;-1.314;2023-02-28T12:58:05;13;13;
36453;PMS5003;22478;51.740;-1.314;2023-02-28T13:00:44;13;10;
36453;PMS5003;22478;51.740;-1.314;2023-02-28T13:03:36;8;8;
36453;PMS5003;22478;51.740;-1.314;2023-02-28T13:06:20;8;7;
36453;PMS5003;22478;51.740;-1.314;2023-02-28T13:09:02;11;8;
36453;PMS5003;22478;51.740;-1.314;2023-02-28T13:11:38;11;8;
36453;PMS5003;22478;51.740;-1.314;2023-02-28T13:14:16;10;10;
36453;PMS5003;22478;51.740;-1.314;2023-02-28T13:16:50;11;10;
36453;PMS5003;22478;51.740;-1.314;2023-02-28T13:19:22;14;13;
36453;PMS5003;22478;51.740;-1.314;2023-02-28T13:21:52;16;16;
36453;PMS5003;22478;51.740;-1.314;2023-02-28T13:24:37;14;13;
36453;PMS5003;22478;51.740;-1.314;2023-02-28T13:27:25;14;12;
36453;PMS5003;22478;51.740;-1.314;2023-02-28T13:29:59;11;10;
36453;PMS5003;22478;51.740;-1.314;2023-02-28T13:32:31;14;13;
36453;PMS5003;22478;51.740;-1.314;2023-02-28T13:35:34;10;10;
36453;PMS5003;22478;51.740;-1.314;2023-02-28T13:38:38;15;13;
36453;PMS5003;22478;51.740;-1.314;2023-02-28T13:43:19;14;10;
36453;PMS5003;22478;51.740;-1.314;2023-02-28T13:46:11;12;10;
36453;PMS5003;22478;51.740;-1.314;2023-02-28T13:48:39;11;10;
36453;PMS5003;22478;51.740;-1.314;2023-02-28T13:51:41;15;14;
36453;PMS5003;22478;51.740;-1.314;2023-02-28T13:54:15;13;13;
36453;PMS5003;22478;51.740;-1.314;2023-02-28T13:56:52;11;9;
36453;PMS5003;22478;51.740;-1.314;2023-02-28T13:59:35;13;11;
36453;PMS5003;22478;51.740;-1.314;2023-02-28T14:02:23;18;17;
36453;PMS5003;22478;51.740;-1.314;2023-02-28T14:05:10;13;13;
36453;PMS5003;22478;51.740;-1.314;2023-02-28T14:07:43;15;14;
36453;PMS5003;22478;51.740;-1.314;2023-02-28T14:10:21;13;10;
36453;PMS5003;22478;51.740;-1.314;2023-02-28T14:12:58;5;5;
36453;PMS5003;22478;51.740;-1.314;2023-02-28T14:15:45;11;11;
36453;PMS5003;22478;51.740;-1.314;2023-02-28T14:18:17;12;10;
36453;PMS5003;22478;51.740;-1.314;2023-02-28T14:20:48;11;11;
36453;PMS5003;22478;51.740;-1.314;2023-02-28T14:23:22;13;13;
36453;PMS5003;22478;51.740;-1.314;2023-02-28T14:26:01;14;14;
36453;PMS5003;22478;51.740;-1.314;2023-02-28T14:28:38;16;15;
36453;PMS5003;22478;51.740;-1.314;2023-02-28T14:31:14;13;9;
36453;PMS5003;22478;51.740;-1.314;2023-02-28T14:33:54;10;9;
36453;PMS5003;22478;51.740;-1.314;2023-02-28T14:36:31;11;10;
36453;PMS5003;22478;51.740;-1.314;2023-02-28T14:39:05;11;11;
36453;PMS5003;22478;51.740;-1.314;2023-02-28T14:41:35;11;11;
36453;PMS5003;22478;51.740;-1.314;2023-02-28T14:44:12;11;10;
36453;PMS5003;22478;51.740;-1.314;2023-02-28T14:46:41;16;16;
36453;PMS5003;22478;51.740;-1.314;2023-02-28T14:49:13;19;17;
36453;PMS5003;22478;51.740;-1.314;2023-02-28T14:51:44;17;15;
36453;PMS5003;22478;51.740;-1.314;2023-02-28T14:54:13;13;13;
36453;PMS5003;22478;51.740;-1.314;2023-02-28T14:56:42;17;15;
36453;PMS5003;22478;51.740;-1.314;2023-02-28T14:59:26;14;12;
36453;PMS5003;22478;51.740;-1.314;2023-02-28T15:02:29;21;19;
36453;PMS5003;22478;51.740;-1.314;2023-02-28T15:04:58;11;10;
36453;PMS5003;22478;51.740;-1.314;2023-02-28T15:07:28;13;13;
36453;PMS5003;22478;51.740;-1.314;2023-02-28T15:10:27;7;7;
36453;PMS5003;22478;51.740;-1.314;2023-02-28T15:12:57;9;9;
36453;PMS5003;22478;51.740;-1.314;2023-02-28T15:15:29;18;16;
36453;PMS5003;22478;51.740;-1.314;2023-02-28T15:18:06;12;12;
36453;PMS5003;22478;51.740;-1.314;2023-02-28T15:20:38;15;15;
36453;PMS5003;22478;51.740;-1.314;2023-02-28T15:23:08;15;11;
36453;PMS5003;22478;51.740;-1.314;2023-02-28T15:25:36;21;20;
36453;PMS5003;22478;51.740;-1.314;2023-02-28T15:28:04;18;17;
36453;PMS5003;22478;51.740;-1.314;2023-02-28T15:30:32;21;21;
36453;PMS5003;22478;51.740;-1.314;2023-02-28T15:33:04;22;19;
36453;PMS5003;22478;51.740;-1.314;2023-02-28T15:35:33;14;12;
36453;PMS5003;22478;51.740;-1.314;2023-02-28T15:38:01;19;16;
36453;PMS5003;22478;51.740;-1.314;2023-02-28T15:40:41;20;18;
36453;PMS5003;22478;51.740;-1.314;2023-02-28T15:43:13;17;13;
36453;PMS5003;22478;51.740;-1.314;2023-02-28T15:45:44;20;20;
36453;PMS5003;22478;51.740;-1.314;2023-02-28T15:48:14;14;14;
36453;PMS5003;22478;51.740;-1.314;2023-02-28T15:50:47;22;21;
36453;PMS5003;22478;51.740;-1.314;2023-02-28T15:53:18;12;12;
36453;PMS5003;22478;51.740;-1.314;2023-02-28T15:55:58;20;17;
36453;PMS5003;22478;51.740;-1.314;2023-02-28T15:58:28;19;16;
36453;PMS5003;22478;51.740;-1.314;2023-02-28T16:01:01;15;15;
36453;PMS5003;22478;51.740;-1.314;2023-02-28T16:03:38;15;11;
36453;PMS5003;22478;51.740;-1.314;2023-02-28T16:06:09;16;14;
36453;PMS5003;22478;51.740;-1.314;2023-02-28T16:09:11;11;11;
36453;PMS5003;22478;51.740;-1.314;2023-02-28T16:11:41;12;12;
36453;PMS5003;22478;51.740;-1.314;2023-02-28T16:14:13;12;11;
36453;PMS5003;22478;51.740;-1.314;2023-02-28T16:16:43;13;12;
36453;PMS5003;22478;51.740;-1.314;2023-02-28T16:19:12;11;11;
36453;PMS5003;22478;51.740;-1.314;2023-02-28T16:21:40;13;11;
36453;PMS5003;22478;51.740;-1.314;2023-02-28T16:24:07;9;9;
36453;PMS5003;22478;51.740;-1.314;2023-02-28T16:26:34;16;16;
36453;PMS5003;22478;51.740;-1.314;2023-02-28T16:29:02;15;13;
36453;PMS5003;22478;51.740;-1.314;2023-02-28T16:31:30;12;12;
36453;PMS5003;22478;51.740;-1.314;2023-02-28T16:34:00;16;16;
36453;PMS5003;22478;51.740;-1.314;2023-02-28T16:36:28;16;16;
36453;PMS5003;22478;51.740;-1.314;2023-02-28T16:38:56;13;13;
36453;PMS5003;22478;51.740;-1.314;2023-02-28T16:41:24;19;19;
36453;PMS5003;22478;51.740;-1.314;2023-02-28T16:43:54;23;23;